sensor_id;sensor_type;location;lat;lon;timestamp;temperature;humidity
39347;DHT22;26262;49.836;6.632;2023-12-20T00:01:34;5.90;99.90
39347;DHT22;26262;49.836;6.632;2023-12-20T00:04:00;5.90;99.90
39347;DHT22;26262;49.836;6.632;2023-12-20T00:06:26;6.00;99.90
39347;DHT22;26262;49.836;6.632;2023-12-20T00:08:51;6.10;99.90
39347;DHT22;26262;49.836;6.632;2023-12-20T00:11:16;6.20;99.90
39347;DHT22;26262;49.836;6.632;2023-12-20T00:13:42;6.10;99.90
39347;DHT22;26262;49.836;6.632;2023-12-20T00:16:07;6.20;99.90
39347;DHT22;26262;49.836;6.632;2023-12-20T00:18:33;6.10;99.90
39347;DHT22;26262;49.836;6.632;2023-12-20T00:20:58;6.00;99.90
39347;DHT22;26262;49.836;6.632;2023-12-20T00:23:24;6.10;99.90
39347;DHT22;26262;49.836;6.632;2023-12-20T00:25:49;6.00;99.90
39347;DHT22;26262;49.836;6.632;2023-12-20T00:28:14;6.10;99.90
39347;DHT22;26262;49.836;6.632;2023-12-20T00:30:40;6.20;99.90
39347;DHT22;26262;49.836;6.632;2023-12-20T00:33:05;6.20;99.90
39347;DHT22;26262;49.836;6.632;2023-12-20T00:35:31;6.20;99.90
39347;DHT22;26262;49.836;6.632;2023-12-20T00:37:56;6.10;99.90
39347;DHT22;26262;49.836;6.632;2023-12-20T00:40:21;5.90;99.90
39347;DHT22;26262;49.836;6.632;2023-12-20T00:42:47;6.00;99.90
39347;DHT22;26262;49.836;6.632;2023-12-20T00:45:13;6.10;99.90
39347;DHT22;26262;49.836;6.632;2023-12-20T00:47:39;6.20;99.90
39347;DHT22;26262;49.836;6.632;2023-12-20T00:50:05;6.10;99.90
39347;DHT22;26262;49.836;6.632;2023-12-20T00:52:31;6.20;99.90
39347;DHT22;26262;49.836;6.632;2023-12-20T00:54:56;6.10;99.90
39347;DHT22;26262;49.836;6.632;2023-12-20T00:57:21;6.20;99.90
39347;DHT22;26262;49.836;6.632;2023-12-20T00:59:47;6.10;99.90
39347;DHT22;26262;49.836;6.632;2023-12-20T01:02:12;5.80;99.90
39347;DHT22;26262;49.836;6.632;2023-12-20T01:04:38;5.90;99.90
39347;DHT22;26262;49.836;6.632;2023-12-20T01:07:03;6.10;99.90
39347;DHT22;26262;49.836;6.632;2023-12-20T01:09:29;6.10;99.90
39347;DHT22;26262;49.836;6.632;2023-12-20T01:11:54;6.10;99.90
39347;DHT22;26262;49.836;6.632;2023-12-20T01:14:20;5.80;99.90
39347;DHT22;26262;49.836;6.632;2023-12-20T01:16:45;5.90;99.90
39347;DHT22;26262;49.836;6.632;2023-12-20T01:19:10;6.00;99.90
39347;DHT22;26262;49.836;6.632;2023-12-20T01:21:36;5.90;99.90
39347;DHT22;26262;49.836;6.632;2023-12-20T01:24:01;6.10;99.90
39347;DHT22;26262;49.836;6.632;2023-12-20T01:26:27;6.00;99.90
39347;DHT22;26262;49.836;6.632;2023-12-20T01:28:53;6.00;99.90
39347;DHT22;26262;49.836;6.632;2023-12-20T01:31:18;6.00;99.90
39347;DHT22;26262;49.836;6.632;2023-12-20T01:33:44;6.10;99.90
39347;DHT22;26262;49.836;6.632;2023-12-20T01:36:09;6.10;99.90
39347;DHT22;26262;49.836;6.632;2023-12-20T01:38:34;6.00;99.90
39347;DHT22;26262;49.836;6.632;2023-12-20T01:41:00;6.00;99.90
39347;DHT22;26262;49.836;6.632;2023-12-20T01:43:25;6.00;99.90
39347;DHT22;26262;49.836;6.632;2023-12-20T01:45:51;6.10;99.90
39347;DHT22;26262;49.836;6.632;2023-12-20T01:48:17;6.10;99.90
39347;DHT22;26262;49.836;6.632;2023-12-20T01:50:43;6.00;99.90
39347;DHT22;26262;49.836;6.632;2023-12-20T01:53:09;5.90;99.90
39347;DHT22;26262;49.836;6.632;2023-12-20T01:55:36;6.00;99.90
39347;DHT22;26262;49.836;6.632;2023-12-20T01:58:03;6.00;99.90
39347;DHT22;26262;49.836;6.632;2023-12-20T02:00:29;6.10;99.90
39347;DHT22;26262;49.836;6.632;2023-12-20T02:02:55;5.90;99.90
39347;DHT22;26262;49.836;6.632;2023-12-20T02:05:21;6.00;99.90
39347;DHT22;26262;49.836;6.632;2023-12-20T02:07:46;6.00;99.90
39347;DHT22;26262;49.836;6.632;2023-12-20T02:10:12;5.80;99.90
39347;DHT22;26262;49.836;6.632;2023-12-20T02:12:38;5.70;99.90
39347;DHT22;26262;49.836;6.632;2023-12-20T02:15:04;5.70;99.90
39347;DHT22;26262;49.836;6.632;2023-12-20T02:17:29;5.80;99.90
39347;DHT22;26262;49.836;6.632;2023-12-20T02:19:55;5.60;99.90
39347;DHT22;26262;49.836;6.632;2023-12-20T02:22:20;5.60;99.90
39347;DHT22;26262;49.836;6.632;2023-12-20T02:24:45;5.70;99.90
39347;DHT22;26262;49.836;6.632;2023-12-20T02:27:11;5.70;99.90
39347;DHT22;26262;49.836;6.632;2023-12-20T02:29:37;5.90;99.90
39347;DHT22;26262;49.836;6.632;2023-12-20T02:32:02;6.10;99.90
39347;DHT22;26262;49.836;6.632;2023-12-20T02:34:28;6.10;99.90
39347;DHT22;26262;49.836;6.632;2023-12-20T02:36:53;6.20;99.90
39347;DHT22;26262;49.836;6.632;2023-12-20T02:39:19;6.20;99.90
39347;DHT22;26262;49.836;6.632;2023-12-20T02:41:44;6.30;99.90
39347;DHT22;26262;49.836;6.632;2023-12-20T02:44:10;6.40;99.90
39347;DHT22;26262;49.836;6.632;2023-12-20T02:46:35;6.30;99.90
39347;DHT22;26262;49.836;6.632;2023-12-20T02:49:01;6.40;99.90
39347;DHT22;26262;49.836;6.632;2023-12-20T02:51:26;6.40;99.90
39347;DHT22;26262;49.836;6.632;2023-12-20T02:53:52;6.40;99.90
39347;DHT22;26262;49.836;6.632;2023-12-20T02:56:17;6.30;99.90
39347;DHT22;26262;49.836;6.632;2023-12-20T02:58:42;6.10;99.90
39347;DHT22;26262;49.836;6.632;2023-12-20T03:01:08;6.20;99.90
39347;DHT22;26262;49.836;6.632;2023-12-20T03:03:34;6.30;99.90
39347;DHT22;26262;49.836;6.632;2023-12-20T03:05:59;6.30;99.90
39347;DHT22;26262;49.836;6.632;2023-12-20T03:08:25;6.30;99.90
39347;DHT22;26262;49.836;6.632;2023-12-20T03:10:50;6.10;99.90
39347;DHT22;26262;49.836;6.632;2023-12-20T03:13:15;6.20;99.90
39347;DHT22;26262;49.836;6.632;2023-12-20T03:15:41;6.30;99.90
39347;DHT22;26262;49.836;6.632;2023-12-20T03:18:06;6.40;99.90
39347;DHT22;26262;49.836;6.632;2023-12-20T03:20:32;6.40;99.90
39347;DHT22;26262;49.836;6.632;2023-12-20T03:23:02;6.40;99.90
39347;DHT22;26262;49.836;6.632;2023-12-20T03:25:28;6.10;99.90
39347;DHT22;26262;49.836;6.632;2023-12-20T03:27:53;6.20;99.90
39347;DHT22;26262;49.836;6.632;2023-12-20T03:30:19;6.10;99.90
39347;DHT22;26262;49.836;6.632;2023-12-20T03:32:45;5.80;99.90
39347;DHT22;26262;49.836;6.632;2023-12-20T03:35:10;5.70;99.90
39347;DHT22;26262;49.836;6.632;2023-12-20T03:37:36;5.60;99.90
39347;DHT22;26262;49.836;6.632;2023-12-20T03:40:01;5.60;99.90
39347;DHT22;26262;49.836;6.632;2023-12-20T03:42:27;5.50;99.90
39347;DHT22;26262;49.836;6.632;2023-12-20T03:44:52;5.40;99.90
39347;DHT22;26262;49.836;6.632;2023-12-20T03:47:17;5.40;99.90
39347;DHT22;26262;49.836;6.632;2023-12-20T03:49:43;5.20;99.90
39347;DHT22;26262;49.836;6.632;2023-12-20T03:52:08;5.20;99.90
39347;DHT22;26262;49.836;6.632;2023-12-20T03:54:37;5.10;99.90
39347;DHT22;26262;49.836;6.632;2023-12-20T03:57:03;5.20;99.90
39347;DHT22;26262;49.836;6.632;2023-12-20T03:59:28;5.20;99.90
39347;DHT22;26262;49.836;6.632;2023-12-20T04:01:54;5.30;99.90
39347;DHT22;26262;49.836;6.632;2023-12-20T04:04:19;5.40;99.90
39347;DHT22;26262;49.836;6.632;2023-12-20T04:06:44;5.30;99.90
39347;DHT22;26262;49.836;6.632;2023-12-20T04:09:10;5.30;99.90
39347;DHT22;26262;49.836;6.632;2023-12-20T04:11:38;5.20;99.90
39347;DHT22;26262;49.836;6.632;2023-12-20T04:14:04;5.20;99.90
39347;DHT22;26262;49.836;6.632;2023-12-20T04:16:32;5.20;99.90
39347;DHT22;26262;49.836;6.632;2023-12-20T04:18:58;5.20;99.90
39347;DHT22;26262;49.836;6.632;2023-12-20T04:21:23;5.00;99.90
39347;DHT22;26262;49.836;6.632;2023-12-20T04:23:48;5.20;99.90
39347;DHT22;26262;49.836;6.632;2023-12-20T04:26:14;5.20;99.90
39347;DHT22;26262;49.836;6.632;2023-12-20T04:28:39;5.20;99.90
39347;DHT22;26262;49.836;6.632;2023-12-20T04:31:05;5.30;99.90
39347;DHT22;26262;49.836;6.632;2023-12-20T04:33:30;5.40;99.90
39347;DHT22;26262;49.836;6.632;2023-12-20T04:35:56;5.50;99.90
39347;DHT22;26262;49.836;6.632;2023-12-20T04:38:22;5.40;99.90
39347;DHT22;26262;49.836;6.632;2023-12-20T04:40:48;5.50;99.90
39347;DHT22;26262;49.836;6.632;2023-12-20T04:43:13;5.60;99.90
39347;DHT22;26262;49.836;6.632;2023-12-20T04:45:39;5.60;99.90
39347;DHT22;26262;49.836;6.632;2023-12-20T04:48:04;5.60;99.90
39347;DHT22;26262;49.836;6.632;2023-12-20T04:50:30;5.70;99.90
39347;DHT22;26262;49.836;6.632;2023-12-20T04:52:55;5.70;99.90
39347;DHT22;26262;49.836;6.632;2023-12-20T04:55:20;5.60;99.90
39347;DHT22;26262;49.836;6.632;2023-12-20T04:57:46;5.60;99.90
39347;DHT22;26262;49.836;6.632;2023-12-20T05:00:11;5.60;99.90
39347;DHT22;26262;49.836;6.632;2023-12-20T05:02:37;5.60;99.90
39347;DHT22;26262;49.836;6.632;2023-12-20T05:05:03;5.60;99.90
39347;DHT22;26262;49.836;6.632;2023-12-20T05:07:28;5.50;99.90
39347;DHT22;26262;49.836;6.632;2023-12-20T05:09:54;5.60;99.90
39347;DHT22;26262;49.836;6.632;2023-12-20T05:12:19;5.50;99.90
39347;DHT22;26262;49.836;6.632;2023-12-20T05:14:45;5.50;99.90
39347;DHT22;26262;49.836;6.632;2023-12-20T05:17:11;5.50;99.90
39347;DHT22;26262;49.836;6.632;2023-12-20T05:19:36;5.50;99.90
39347;DHT22;26262;49.836;6.632;2023-12-20T05:22:02;5.60;99.90
39347;DHT22;26262;49.836;6.632;2023-12-20T05:24:28;5.50;99.90
39347;DHT22;26262;49.836;6.632;2023-12-20T05:26:53;5.60;99.90
39347;DHT22;26262;49.836;6.632;2023-12-20T05:29:18;5.50;99.90
39347;DHT22;26262;49.836;6.632;2023-12-20T05:31:44;5.50;99.90
39347;DHT22;26262;49.836;6.632;2023-12-20T05:34:09;5.20;99.90
39347;DHT22;26262;49.836;6.632;2023-12-20T05:36:35;5.20;99.90
39347;DHT22;26262;49.836;6.632;2023-12-20T05:39:00;5.30;99.90
39347;DHT22;26262;49.836;6.632;2023-12-20T05:41:26;5.30;99.90
39347;DHT22;26262;49.836;6.632;2023-12-20T05:43:51;5.20;99.90
39347;DHT22;26262;49.836;6.632;2023-12-20T05:46:17;5.30;99.90
39347;DHT22;26262;49.836;6.632;2023-12-20T05:48:42;5.40;99.90
39347;DHT22;26262;49.836;6.632;2023-12-20T05:51:07;5.40;99.90
39347;DHT22;26262;49.836;6.632;2023-12-20T05:53:36;5.50;99.90
39347;DHT22;26262;49.836;6.632;2023-12-20T05:56:01;5.50;99.90
39347;DHT22;26262;49.836;6.632;2023-12-20T05:58:27;5.50;99.90
39347;DHT22;26262;49.836;6.632;2023-12-20T06:00:52;5.50;99.90
39347;DHT22;26262;49.836;6.632;2023-12-20T06:03:18;5.50;99.90
39347;DHT22;26262;49.836;6.632;2023-12-20T06:05:43;5.40;99.90
39347;DHT22;26262;49.836;6.632;2023-12-20T06:08:08;5.20;99.90
39347;DHT22;26262;49.836;6.632;2023-12-20T06:10:34;5.30;99.90
39347;DHT22;26262;49.836;6.632;2023-12-20T06:12:59;5.40;99.90
39347;DHT22;26262;49.836;6.632;2023-12-20T06:15:26;5.20;99.90
39347;DHT22;26262;49.836;6.632;2023-12-20T06:17:51;5.20;99.90
39347;DHT22;26262;49.836;6.632;2023-12-20T06:20:16;5.20;99.90
39347;DHT22;26262;49.836;6.632;2023-12-20T06:22:42;5.30;99.90
39347;DHT22;26262;49.836;6.632;2023-12-20T06:25:07;5.40;99.90
39347;DHT22;26262;49.836;6.632;2023-12-20T06:27:33;5.20;99.90
39347;DHT22;26262;49.836;6.632;2023-12-20T06:29:58;5.20;99.90
39347;DHT22;26262;49.836;6.632;2023-12-20T06:32:24;5.10;99.90
39347;DHT22;26262;49.836;6.632;2023-12-20T06:34:50;5.10;99.90
39347;DHT22;26262;49.836;6.632;2023-12-20T06:37:15;4.90;99.90
39347;DHT22;26262;49.836;6.632;2023-12-20T06:39:40;4.90;99.90
39347;DHT22;26262;49.836;6.632;2023-12-20T06:42:06;5.10;99.90
39347;DHT22;26262;49.836;6.632;2023-12-20T06:44:31;5.00;99.90
39347;DHT22;26262;49.836;6.632;2023-12-20T06:46:57;4.90;99.90
39347;DHT22;26262;49.836;6.632;2023-12-20T06:49:22;4.90;99.90
39347;DHT22;26262;49.836;6.632;2023-12-20T06:51:48;4.90;99.90
39347;DHT22;26262;49.836;6.632;2023-12-20T06:54:13;5.00;99.90
39347;DHT22;26262;49.836;6.632;2023-12-20T06:56:39;5.10;99.90
39347;DHT22;26262;49.836;6.632;2023-12-20T06:59:04;5.20;99.90
39347;DHT22;26262;49.836;6.632;2023-12-20T07:01:30;5.20;99.90
39347;DHT22;26262;49.836;6.632;2023-12-20T07:03:55;4.90;99.90
39347;DHT22;26262;49.836;6.632;2023-12-20T07:06:21;5.10;99.90
39347;DHT22;26262;49.836;6.632;2023-12-20T07:08:46;4.90;99.90
39347;DHT22;26262;49.836;6.632;2023-12-20T07:11:12;4.80;99.90
39347;DHT22;26262;49.836;6.632;2023-12-20T07:13:37;4.90;99.90
39347;DHT22;26262;49.836;6.632;2023-12-20T07:16:02;4.90;99.90
39347;DHT22;26262;49.836;6.632;2023-12-20T07:18:28;4.90;99.90
39347;DHT22;26262;49.836;6.632;2023-12-20T07:20:54;5.00;99.90
39347;DHT22;26262;49.836;6.632;2023-12-20T07:23:20;5.10;99.90
39347;DHT22;26262;49.836;6.632;2023-12-20T07:25:46;5.00;99.90
39347;DHT22;26262;49.836;6.632;2023-12-20T07:28:12;5.10;99.90
39347;DHT22;26262;49.836;6.632;2023-12-20T07:30:37;5.20;99.90
39347;DHT22;26262;49.836;6.632;2023-12-20T07:33:02;5.10;99.90
39347;DHT22;26262;49.836;6.632;2023-12-20T07:35:28;5.20;99.90
39347;DHT22;26262;49.836;6.632;2023-12-20T07:37:53;5.10;99.90
39347;DHT22;26262;49.836;6.632;2023-12-20T07:40:19;5.20;99.90
39347;DHT22;26262;49.836;6.632;2023-12-20T07:42:44;5.20;99.90
39347;DHT22;26262;49.836;6.632;2023-12-20T07:45:10;5.20;99.90
39347;DHT22;26262;49.836;6.632;2023-12-20T07:47:37;5.00;99.90
39347;DHT22;26262;49.836;6.632;2023-12-20T07:50:02;4.90;99.90
39347;DHT22;26262;49.836;6.632;2023-12-20T07:52:28;5.00;99.90
39347;DHT22;26262;49.836;6.632;2023-12-20T07:54:54;5.20;99.90
39347;DHT22;26262;49.836;6.632;2023-12-20T07:57:19;5.20;99.90
39347;DHT22;26262;49.836;6.632;2023-12-20T07:59:45;5.30;99.90
39347;DHT22;26262;49.836;6.632;2023-12-20T08:02:10;5.10;99.90
39347;DHT22;26262;49.836;6.632;2023-12-20T08:04:36;5.10;99.90
39347;DHT22;26262;49.836;6.632;2023-12-20T08:07:01;5.20;99.90
39347;DHT22;26262;49.836;6.632;2023-12-20T08:09:27;5.00;99.90
39347;DHT22;26262;49.836;6.632;2023-12-20T08:11:52;5.00;99.90
39347;DHT22;26262;49.836;6.632;2023-12-20T08:14:18;5.00;99.90
39347;DHT22;26262;49.836;6.632;2023-12-20T08:16:43;5.00;99.90
39347;DHT22;26262;49.836;6.632;2023-12-20T08:19:08;5.00;99.90
39347;DHT22;26262;49.836;6.632;2023-12-20T08:21:34;4.90;99.90
39347;DHT22;26262;49.836;6.632;2023-12-20T08:24:00;5.00;99.90
39347;DHT22;26262;49.836;6.632;2023-12-20T08:26:28;4.90;99.90
39347;DHT22;26262;49.836;6.632;2023-12-20T08:28:53;4.90;99.90
39347;DHT22;26262;49.836;6.632;2023-12-20T08:31:19;5.10;99.90
39347;DHT22;26262;49.836;6.632;2023-12-20T08:33:45;5.10;99.90
39347;DHT22;26262;49.836;6.632;2023-12-20T08:36:11;5.10;99.90
39347;DHT22;26262;49.836;6.632;2023-12-20T08:38:36;5.00;99.90
39347;DHT22;26262;49.836;6.632;2023-12-20T08:41:02;5.10;99.90
39347;DHT22;26262;49.836;6.632;2023-12-20T08:43:28;5.30;99.90
39347;DHT22;26262;49.836;6.632;2023-12-20T08:45:54;5.30;99.90
39347;DHT22;26262;49.836;6.632;2023-12-20T08:48:19;5.20;99.90
39347;DHT22;26262;49.836;6.632;2023-12-20T08:50:45;5.30;99.90
39347;DHT22;26262;49.836;6.632;2023-12-20T08:53:11;5.40;99.90
39347;DHT22;26262;49.836;6.632;2023-12-20T08:55:36;5.40;99.90
39347;DHT22;26262;49.836;6.632;2023-12-20T08:58:02;5.40;99.90
39347;DHT22;26262;49.836;6.632;2023-12-20T09:00:27;5.60;99.90
39347;DHT22;26262;49.836;6.632;2023-12-20T09:02:54;5.50;99.90
39347;DHT22;26262;49.836;6.632;2023-12-20T09:05:20;5.60;99.90
39347;DHT22;26262;49.836;6.632;2023-12-20T09:07:45;5.60;99.90
39347;DHT22;26262;49.836;6.632;2023-12-20T09:10:10;5.60;99.90
39347;DHT22;26262;49.836;6.632;2023-12-20T09:12:36;5.70;99.90
39347;DHT22;26262;49.836;6.632;2023-12-20T09:15:04;5.60;99.90
39347;DHT22;26262;49.836;6.632;2023-12-20T09:17:30;5.70;99.90
39347;DHT22;26262;49.836;6.632;2023-12-20T09:19:56;5.80;99.90
39347;DHT22;26262;49.836;6.632;2023-12-20T09:22:21;5.70;99.90
39347;DHT22;26262;49.836;6.632;2023-12-20T09:24:47;5.70;99.90
39347;DHT22;26262;49.836;6.632;2023-12-20T09:27:12;5.60;99.90
39347;DHT22;26262;49.836;6.632;2023-12-20T09:29:38;5.60;99.90
39347;DHT22;26262;49.836;6.632;2023-12-20T09:32:03;5.70;99.90
39347;DHT22;26262;49.836;6.632;2023-12-20T09:34:29;5.90;99.90
39347;DHT22;26262;49.836;6.632;2023-12-20T09:36:54;5.80;99.90
39347;DHT22;26262;49.836;6.632;2023-12-20T09:39:20;5.80;99.90
39347;DHT22;26262;49.836;6.632;2023-12-20T09:41:51;5.90;99.90
39347;DHT22;26262;49.836;6.632;2023-12-20T09:44:19;5.80;99.90
39347;DHT22;26262;49.836;6.632;2023-12-20T09:46:45;5.80;99.90
39347;DHT22;26262;49.836;6.632;2023-12-20T09:49:12;6.00;99.90
39347;DHT22;26262;49.836;6.632;2023-12-20T09:51:38;5.90;99.90
39347;DHT22;26262;49.836;6.632;2023-12-20T09:54:04;5.70;99.90
39347;DHT22;26262;49.836;6.632;2023-12-20T09:56:30;5.70;99.90
39347;DHT22;26262;49.836;6.632;2023-12-20T09:58:56;5.90;99.90
39347;DHT22;26262;49.836;6.632;2023-12-20T10:01:21;5.90;99.90
39347;DHT22;26262;49.836;6.632;2023-12-20T10:03:47;6.00;99.90
39347;DHT22;26262;49.836;6.632;2023-12-20T10:06:13;6.10;99.90
39347;DHT22;26262;49.836;6.632;2023-12-20T10:08:38;6.20;99.90
39347;DHT22;26262;49.836;6.632;2023-12-20T10:11:04;6.30;99.90
39347;DHT22;26262;49.836;6.632;2023-12-20T10:13:30;6.30;99.90
39347;DHT22;26262;49.836;6.632;2023-12-20T10:15:55;6.30;99.90
39347;DHT22;26262;49.836;6.632;2023-12-20T10:18:21;6.30;99.90
39347;DHT22;26262;49.836;6.632;2023-12-20T10:20:46;6.30;99.90
39347;DHT22;26262;49.836;6.632;2023-12-20T10:23:12;6.30;99.90
39347;DHT22;26262;49.836;6.632;2023-12-20T10:25:39;6.40;99.90
39347;DHT22;26262;49.836;6.632;2023-12-20T10:28:16;6.50;99.90
39347;DHT22;26262;49.836;6.632;2023-12-20T10:30:48;6.50;99.90
39347;DHT22;26262;49.836;6.632;2023-12-20T10:33:15;6.40;99.90
39347;DHT22;26262;49.836;6.632;2023-12-20T10:35:48;6.40;99.90
39347;DHT22;26262;49.836;6.632;2023-12-20T10:38:13;6.40;99.90
39347;DHT22;26262;49.836;6.632;2023-12-20T10:40:40;6.30;99.90
39347;DHT22;26262;49.836;6.632;2023-12-20T10:43:05;6.30;99.90
39347;DHT22;26262;49.836;6.632;2023-12-20T10:45:31;6.30;99.90
39347;DHT22;26262;49.836;6.632;2023-12-20T10:47:57;6.30;99.90
39347;DHT22;26262;49.836;6.632;2023-12-20T10:50:24;6.30;99.90
39347;DHT22;26262;49.836;6.632;2023-12-20T10:52:50;6.30;99.90
39347;DHT22;26262;49.836;6.632;2023-12-20T10:55:21;6.20;99.90
39347;DHT22;26262;49.836;6.632;2023-12-20T10:57:46;6.30;99.90
39347;DHT22;26262;49.836;6.632;2023-12-20T11:00:16;6.30;99.90
39347;DHT22;26262;49.836;6.632;2023-12-20T11:02:42;6.30;99.90
39347;DHT22;26262;49.836;6.632;2023-12-20T11:07:45;6.10;99.90
39347;DHT22;26262;49.836;6.632;2023-12-20T11:12:46;6.30;99.90
39347;DHT22;26262;49.836;6.632;2023-12-20T11:15:12;6.40;99.90
39347;DHT22;26262;49.836;6.632;2023-12-20T11:17:39;6.30;99.90
39347;DHT22;26262;49.836;6.632;2023-12-20T11:20:05;6.20;99.90
39347;DHT22;26262;49.836;6.632;2023-12-20T11:22:31;6.30;99.90
39347;DHT22;26262;49.836;6.632;2023-12-20T11:25:04;6.40;99.90
39347;DHT22;26262;49.836;6.632;2023-12-20T11:27:30;6.40;99.90
39347;DHT22;26262;49.836;6.632;2023-12-20T11:29:56;6.40;99.90
39347;DHT22;26262;49.836;6.632;2023-12-20T11:34:55;6.50;99.90
39347;DHT22;26262;49.836;6.632;2023-12-20T11:37:20;6.60;99.90
39347;DHT22;26262;49.836;6.632;2023-12-20T11:39:53;6.70;99.90
39347;DHT22;26262;49.836;6.632;2023-12-20T11:42:19;6.60;99.90
39347;DHT22;26262;49.836;6.632;2023-12-20T11:44:45;6.60;99.90
39347;DHT22;26262;49.836;6.632;2023-12-20T11:47:10;6.50;99.90
39347;DHT22;26262;49.836;6.632;2023-12-20T11:49:37;6.50;99.90
39347;DHT22;26262;49.836;6.632;2023-12-20T11:52:02;6.40;99.90
39347;DHT22;26262;49.836;6.632;2023-12-20T11:54:29;6.40;99.90
39347;DHT22;26262;49.836;6.632;2023-12-20T11:56:55;6.40;99.90
39347;DHT22;26262;49.836;6.632;2023-12-20T11:59:21;6.50;99.90
39347;DHT22;26262;49.836;6.632;2023-12-20T12:01:49;6.50;99.90
39347;DHT22;26262;49.836;6.632;2023-12-20T12:04:20;6.50;99.90
39347;DHT22;26262;49.836;6.632;2023-12-20T12:06:46;6.40;99.90
39347;DHT22;26262;49.836;6.632;2023-12-20T12:09:11;6.50;99.90
39347;DHT22;26262;49.836;6.632;2023-12-20T12:11:37;6.70;99.90
39347;DHT22;26262;49.836;6.632;2023-12-20T12:14:02;6.70;99.90
39347;DHT22;26262;49.836;6.632;2023-12-20T12:16:28;6.60;99.90
39347;DHT22;26262;49.836;6.632;2023-12-20T12:18:57;6.60;99.90
39347;DHT22;26262;49.836;6.632;2023-12-20T12:21:23;6.50;99.90
39347;DHT22;26262;49.836;6.632;2023-12-20T12:23:48;6.60;99.90
39347;DHT22;26262;49.836;6.632;2023-12-20T12:26:14;6.70;99.90
39347;DHT22;26262;49.836;6.632;2023-12-20T12:28:40;6.80;99.90
39347;DHT22;26262;49.836;6.632;2023-12-20T12:31:05;6.80;99.90
39347;DHT22;26262;49.836;6.632;2023-12-20T12:33:30;6.80;99.90
39347;DHT22;26262;49.836;6.632;2023-12-20T12:35:56;6.90;99.90
39347;DHT22;26262;49.836;6.632;2023-12-20T12:38:22;6.90;99.90
39347;DHT22;26262;49.836;6.632;2023-12-20T12:40:47;7.00;99.90
39347;DHT22;26262;49.836;6.632;2023-12-20T12:43:13;6.90;99.90
39347;DHT22;26262;49.836;6.632;2023-12-20T12:45:38;6.80;99.90
39347;DHT22;26262;49.836;6.632;2023-12-20T12:48:04;7.00;99.90
39347;DHT22;26262;49.836;6.632;2023-12-20T12:50:30;7.00;99.90
39347;DHT22;26262;49.836;6.632;2023-12-20T12:52:55;7.00;99.90
39347;DHT22;26262;49.836;6.632;2023-12-20T12:55:21;7.00;99.90
39347;DHT22;26262;49.836;6.632;2023-12-20T12:57:46;7.00;99.90
39347;DHT22;26262;49.836;6.632;2023-12-20T13:00:12;7.10;99.90
39347;DHT22;26262;49.836;6.632;2023-12-20T13:02:37;7.10;99.90
39347;DHT22;26262;49.836;6.632;2023-12-20T13:05:03;7.30;99.90
39347;DHT22;26262;49.836;6.632;2023-12-20T13:07:29;7.30;99.90
39347;DHT22;26262;49.836;6.632;2023-12-20T13:09:55;7.20;99.90
39347;DHT22;26262;49.836;6.632;2023-12-20T13:12:20;7.10;99.90
39347;DHT22;26262;49.836;6.632;2023-12-20T13:14:46;7.00;99.90
39347;DHT22;26262;49.836;6.632;2023-12-20T13:17:12;6.90;99.90
39347;DHT22;26262;49.836;6.632;2023-12-20T13:19:38;6.90;99.90
39347;DHT22;26262;49.836;6.632;2023-12-20T13:22:03;7.10;99.90
39347;DHT22;26262;49.836;6.632;2023-12-20T13:24:29;7.00;99.90
39347;DHT22;26262;49.836;6.632;2023-12-20T13:26:54;7.00;99.90
39347;DHT22;26262;49.836;6.632;2023-12-20T13:29:20;6.90;99.90
39347;DHT22;26262;49.836;6.632;2023-12-20T13:31:45;6.90;99.90
39347;DHT22;26262;49.836;6.632;2023-12-20T13:34:11;6.90;99.90
39347;DHT22;26262;49.836;6.632;2023-12-20T13:36:37;7.10;99.90
39347;DHT22;26262;49.836;6.632;2023-12-20T13:39:03;7.00;99.90
39347;DHT22;26262;49.836;6.632;2023-12-20T13:41:30;7.00;99.90
39347;DHT22;26262;49.836;6.632;2023-12-20T13:43:55;7.00;99.90
39347;DHT22;26262;49.836;6.632;2023-12-20T13:46:21;7.00;99.90
39347;DHT22;26262;49.836;6.632;2023-12-20T13:48:46;7.00;99.90
39347;DHT22;26262;49.836;6.632;2023-12-20T13:51:12;7.00;99.90
39347;DHT22;26262;49.836;6.632;2023-12-20T13:53:37;6.90;99.90
39347;DHT22;26262;49.836;6.632;2023-12-20T13:56:03;6.90;99.90
39347;DHT22;26262;49.836;6.632;2023-12-20T13:58:29;6.80;99.90
39347;DHT22;26262;49.836;6.632;2023-12-20T14:00:54;6.90;99.90
39347;DHT22;26262;49.836;6.632;2023-12-20T14:03:20;6.80;99.90
39347;DHT22;26262;49.836;6.632;2023-12-20T14:05:46;6.80;99.90
39347;DHT22;26262;49.836;6.632;2023-12-20T14:08:11;6.90;99.90
39347;DHT22;26262;49.836;6.632;2023-12-20T14:10:37;6.80;99.90
39347;DHT22;26262;49.836;6.632;2023-12-20T14:13:04;6.80;99.90
39347;DHT22;26262;49.836;6.632;2023-12-20T14:15:30;6.80;99.90
39347;DHT22;26262;49.836;6.632;2023-12-20T14:18:01;6.80;99.90
39347;DHT22;26262;49.836;6.632;2023-12-20T14:20:26;6.80;99.90
39347;DHT22;26262;49.836;6.632;2023-12-20T14:22:52;6.80;99.90
39347;DHT22;26262;49.836;6.632;2023-12-20T14:25:17;6.80;99.90
39347;DHT22;26262;49.836;6.632;2023-12-20T14:27:43;6.90;99.90
39347;DHT22;26262;49.836;6.632;2023-12-20T14:30:12;7.10;99.90
39347;DHT22;26262;49.836;6.632;2023-12-20T14:32:39;7.00;99.90
39347;DHT22;26262;49.836;6.632;2023-12-20T14:35:05;6.90;99.90
39347;DHT22;26262;49.836;6.632;2023-12-20T14:37:30;6.90;99.90
39347;DHT22;26262;49.836;6.632;2023-12-20T14:39:56;6.90;99.90
39347;DHT22;26262;49.836;6.632;2023-12-20T14:42:22;6.90;99.90
39347;DHT22;26262;49.836;6.632;2023-12-20T14:44:47;6.90;99.90
39347;DHT22;26262;49.836;6.632;2023-12-20T14:47:13;7.10;99.90
39347;DHT22;26262;49.836;6.632;2023-12-20T14:49:40;7.00;99.90
39347;DHT22;26262;49.836;6.632;2023-12-20T14:52:06;7.00;99.90
39347;DHT22;26262;49.836;6.632;2023-12-20T14:54:31;6.90;99.90
39347;DHT22;26262;49.836;6.632;2023-12-20T14:56:57;7.00;99.90
39347;DHT22;26262;49.836;6.632;2023-12-20T14:59:22;7.10;99.90
39347;DHT22;26262;49.836;6.632;2023-12-20T15:01:48;7.10;99.90
39347;DHT22;26262;49.836;6.632;2023-12-20T15:04:13;7.20;99.90
39347;DHT22;26262;49.836;6.632;2023-12-20T15:06:39;7.10;99.90
39347;DHT22;26262;49.836;6.632;2023-12-20T15:09:04;7.10;99.90
39347;DHT22;26262;49.836;6.632;2023-12-20T15:11:30;7.00;99.90
39347;DHT22;26262;49.836;6.632;2023-12-20T15:13:56;7.00;99.90
39347;DHT22;26262;49.836;6.632;2023-12-20T15:16:22;6.80;99.90
39347;DHT22;26262;49.836;6.632;2023-12-20T15:18:48;6.80;99.90
39347;DHT22;26262;49.836;6.632;2023-12-20T15:21:14;6.70;99.90
39347;DHT22;26262;49.836;6.632;2023-12-20T15:23:40;6.70;99.90
39347;DHT22;26262;49.836;6.632;2023-12-20T15:26:09;6.70;99.90
39347;DHT22;26262;49.836;6.632;2023-12-20T15:28:34;6.80;99.90
39347;DHT22;26262;49.836;6.632;2023-12-20T15:30:59;6.80;99.90
39347;DHT22;26262;49.836;6.632;2023-12-20T15:33:25;6.80;99.90
39347;DHT22;26262;49.836;6.632;2023-12-20T15:35:50;6.90;99.90
39347;DHT22;26262;49.836;6.632;2023-12-20T15:38:16;7.00;99.90
39347;DHT22;26262;49.836;6.632;2023-12-20T15:40:42;7.00;99.90
39347;DHT22;26262;49.836;6.632;2023-12-20T15:43:07;7.00;99.90